createdAt,value
2023-03-21T00:02:01.317Z,95294.00
2023-03-21T00:06:01.230Z,95294.00
2023-03-21T00:10:12.365Z,95292.00
2023-03-21T00:14:02.161Z,95292.00
2023-03-21T00:18:01.099Z,95286.00
2023-03-21T00:22:07.545Z,95283.00
2023-03-21T00:26:02.053Z,95281.00
2023-03-21T00:30:00.988Z,95273.00
2023-03-21T00:34:00.978Z,95267.00
2023-03-21T00:38:00.916Z,95263.00
2023-03-21T00:42:00.879Z,95257.00
2023-03-21T00:46:00.835Z,95253.00
2023-03-21T00:50:00.829Z,95253.00
2023-03-21T00:54:00.798Z,95253.00
2023-03-21T00:58:02.341Z,95253.00
2023-03-21T01:02:00.813Z,95255.00
2023-03-21T01:06:00.761Z,95251.00
2023-03-21T01:10:00.814Z,95249.00
2023-03-21T01:14:18.738Z,95245.00
2023-03-21T01:18:01.812Z,95239.00
2023-03-21T01:22:00.776Z,95234.00
2023-03-21T01:26:00.747Z,95236.00
2023-03-21T01:30:00.683Z,95228.00
2023-03-21T01:34:00.670Z,95228.00
2023-03-21T01:38:00.647Z,95228.00
2023-03-21T01:42:00.603Z,95224.00
2023-03-21T01:46:00.600Z,95222.00
2023-03-21T01:50:00.627Z,95220.00
2023-03-21T01:54:00.670Z,95208.00
2023-03-21T01:58:07.734Z,95208.00
2023-03-21T02:02:01.680Z,95210.00
2023-03-21T02:06:00.688Z,95210.00
2023-03-21T02:10:00.613Z,95206.00
2023-03-21T02:14:06.631Z,95202.00
2023-03-21T02:18:01.570Z,95200.00
2023-03-21T02:22:00.522Z,95198.00
2023-03-21T02:26:00.459Z,95198.00
2023-03-21T02:30:00.456Z,95198.00
2023-03-21T02:34:02.209Z,95194.00
2023-03-21T02:38:01.076Z,95192.00
2023-03-21T02:42:00.446Z,95198.00
2023-03-21T02:46:00.622Z,95200.00
2023-03-21T02:50:00.602Z,95198.00
2023-03-21T02:54:24.924Z,95196.00
2023-03-21T02:58:12.311Z,95192.00
2023-03-21T03:02:01.696Z,95194.00
2023-03-21T03:06:00.590Z,95189.00
2023-03-21T03:10:00.540Z,95190.00
2023-03-21T03:14:02.115Z,95189.00
2023-03-21T03:18:01.463Z,95185.00
2023-03-21T03:22:00.440Z,95183.00
2023-03-21T03:26:00.354Z,95183.00
2023-03-21T03:30:00.355Z,95183.00
2023-03-21T03:34:00.336Z,95181.00
2023-03-21T03:38:00.336Z,95183.00
2023-03-21T03:42:27.625Z,95177.00
2023-03-21T03:46:01.406Z,95177.00
2023-03-21T03:50:00.347Z,95175.00
2023-03-21T03:54:00.309Z,95177.00
2023-03-21T03:58:00.342Z,95175.00
2023-03-21T04:02:00.357Z,95179.00
2023-03-21T04:06:00.284Z,95173.00
2023-03-21T04:10:00.371Z,95169.00
2023-03-21T04:14:00.423Z,95171.00
2023-03-21T04:18:00.539Z,95177.00
2023-03-21T04:22:00.653Z,95177.00
2023-03-21T04:26:00.728Z,95179.00
2023-03-21T04:30:00.851Z,95179.00
2023-03-21T04:34:00.924Z,95185.00
2023-03-21T04:38:01.023Z,95189.00
2023-03-21T04:42:01.150Z,95192.00
2023-03-21T04:46:01.262Z,95194.00
2023-03-21T04:50:01.353Z,95196.00
2023-03-21T04:54:01.422Z,95200.00
2023-03-21T04:58:01.522Z,95198.00
2023-03-21T05:02:01.606Z,95194.00
2023-03-21T05:06:01.664Z,95196.00
2023-03-21T05:10:02.660Z,95192.00
2023-03-21T05:14:01.854Z,95192.00
2023-03-21T05:18:01.929Z,95192.00
2023-03-21T05:22:01.977Z,95198.00
2023-03-21T05:26:02.116Z,95198.00
2023-03-21T05:30:02.243Z,95196.00
2023-03-21T05:34:02.347Z,95194.00
2023-03-21T05:38:02.384Z,95190.00
2023-03-21T05:42:02.549Z,95189.00
2023-03-21T05:46:02.638Z,95194.00
2023-03-21T05:50:02.709Z,95190.00
2023-03-21T05:54:02.809Z,95190.00
2023-03-21T05:58:02.889Z,95190.00
2023-03-21T06:02:02.977Z,95190.00
2023-03-21T06:06:03.110Z,95189.00
2023-03-21T06:10:03.215Z,95189.00
2023-03-21T06:14:03.355Z,95189.00
2023-03-21T06:18:03.445Z,95189.00
2023-03-21T06:22:03.580Z,95192.00
2023-03-21T06:26:03.688Z,95192.00
2023-03-21T06:30:03.838Z,95196.00
2023-03-21T06:34:03.923Z,95196.00
2023-03-21T06:38:04.390Z,95185.00
2023-03-21T06:42:04.161Z,95202.00
2023-03-21T06:46:04.318Z,95198.00
2023-03-21T06:50:04.306Z,95200.00
2023-03-21T06:54:04.317Z,95200.00
2023-03-21T06:58:04.325Z,95202.00
2023-03-21T07:02:04.852Z,95204.00
2023-03-21T07:06:04.420Z,95204.00
2023-03-21T07:10:04.842Z,95202.00
2023-03-21T07:14:04.343Z,95202.00
2023-03-21T07:18:04.295Z,95202.00
2023-03-21T07:22:04.261Z,95210.00
2023-03-21T07:26:04.263Z,95208.00
2023-03-21T07:30:04.228Z,95206.00
2023-03-21T07:34:04.128Z,95204.00
2023-03-21T07:38:04.103Z,95208.00
2023-03-21T07:42:04.064Z,95206.00
2023-03-21T07:46:04.066Z,95204.00
2023-03-21T07:50:03.969Z,95208.00
2023-03-21T07:54:04.330Z,95210.00
2023-03-21T07:58:03.930Z,95214.00
2023-03-21T08:02:03.923Z,95208.00
2023-03-21T08:06:03.887Z,95200.00
2023-03-21T08:10:03.797Z,95196.00
2023-03-21T08:14:03.789Z,95200.00
2023-03-21T08:18:03.736Z,95200.00
2023-03-21T08:22:03.698Z,95200.00
2023-03-21T08:26:03.909Z,95196.00
2023-03-21T08:30:03.851Z,95192.00
2023-03-21T08:34:03.836Z,95185.00
2023-03-21T08:38:03.766Z,95189.00
2023-03-21T08:42:03.891Z,95187.00
2023-03-21T08:46:03.742Z,95187.00
2023-03-21T08:50:03.861Z,95185.00
2023-03-21T08:54:03.889Z,95181.00
2023-03-21T08:58:03.912Z,95177.00
2023-03-21T09:02:03.608Z,95177.00
2023-03-21T09:06:03.530Z,95181.00
2023-03-21T09:10:19.717Z,95175.00
2023-03-21T09:14:04.591Z,95171.00
2023-03-21T09:18:03.666Z,95157.00
2023-03-21T09:22:03.686Z,95157.00
2023-03-21T09:26:03.611Z,95151.00
2023-03-21T09:30:03.583Z,95153.00
2023-03-21T09:34:03.623Z,95149.00
2023-03-21T09:38:03.595Z,95141.00
2023-03-21T09:42:03.915Z,95134.00
2023-03-21T09:46:03.893Z,95134.00
2023-03-21T09:50:14.038Z,95122.00
2023-03-21T09:54:04.843Z,95116.00
2023-03-21T09:58:03.908Z,95108.00
2023-03-21T10:02:03.766Z,95108.00
2023-03-21T10:06:03.782Z,95108.00
2023-03-21T10:10:03.752Z,95100.00
2023-03-21T10:14:03.886Z,95098.00
2023-03-21T10:18:04.060Z,95094.00
2023-03-21T10:22:04.530Z,95085.00
2023-03-21T10:26:04.366Z,95085.00
2023-03-21T10:30:04.909Z,95081.00
2023-03-21T10:34:04.920Z,95077.00
2023-03-21T10:38:04.915Z,95073.00
2023-03-21T10:42:05.105Z,95073.00
2023-03-21T10:46:05.543Z,95071.00
2023-03-21T10:50:07.822Z,95067.00
2023-03-21T10:54:04.978Z,95059.00
2023-03-21T10:58:04.976Z,95059.00
2023-03-21T11:02:04.957Z,95053.00
2023-03-21T11:06:04.847Z,95053.00
2023-03-21T11:10:04.962Z,95043.00
2023-03-21T11:14:04.793Z,95040.00
2023-03-21T11:18:04.726Z,95034.00
2023-03-21T11:22:04.734Z,95030.00
2023-03-21T11:26:04.701Z,95030.00
2023-03-21T11:30:04.656Z,95022.00
2023-03-21T11:34:04.591Z,95012.00
2023-03-21T11:38:04.580Z,95006.00
2023-03-21T11:42:04.955Z,95000.00
2023-03-21T11:46:04.593Z,95000.00
2023-03-21T11:50:05.576Z,94996.00
2023-03-21T11:54:04.446Z,94989.00
2023-03-21T11:58:13.909Z,94985.00
2023-03-21T12:02:05.644Z,94979.00
2023-03-21T12:06:04.625Z,94977.00
2023-03-21T12:10:05.004Z,94969.00
2023-03-21T12:14:04.933Z,94965.00
2023-03-21T12:18:05.280Z,94959.00
2023-03-21T12:22:05.343Z,94955.00
2023-03-21T12:26:05.448Z,94946.00
2023-03-21T12:30:05.552Z,94940.00
2023-03-21T12:34:06.101Z,94936.00
2023-03-21T12:38:05.999Z,94930.00
2023-03-21T12:42:06.473Z,94922.00
2023-03-21T12:46:06.016Z,94920.00
2023-03-21T12:50:06.070Z,94914.00
2023-03-21T12:54:05.937Z,94910.00
2023-03-21T12:58:05.884Z,94903.00
2023-03-21T13:02:05.895Z,94899.00
2023-03-21T13:06:05.907Z,94899.00
2023-03-21T13:10:05.843Z,94897.00
2023-03-21T13:14:05.745Z,94897.00
2023-03-21T13:18:05.706Z,94895.00
2023-03-21T13:22:05.755Z,94891.00
2023-03-21T13:26:06.013Z,94887.00
2023-03-21T13:30:05.632Z,94883.00
2023-03-21T13:34:05.563Z,94877.00
2023-03-21T13:38:05.620Z,94867.00
2023-03-21T13:42:05.464Z,94861.00
2023-03-21T13:46:05.564Z,94861.00
2023-03-21T13:50:05.434Z,94852.00
2023-03-21T13:54:05.569Z,94846.00
2023-03-21T13:58:05.407Z,94842.00
2023-03-21T14:02:05.550Z,94838.00
2023-03-21T14:06:05.816Z,94836.00
2023-03-21T14:10:06.373Z,94832.00
2023-03-21T14:14:05.893Z,94830.00
2023-03-21T14:18:16.160Z,94830.00
2023-03-21T14:22:07.038Z,94826.00
2023-03-21T14:26:06.141Z,94824.00
2023-03-21T14:30:05.878Z,94820.00
2023-03-21T14:34:06.004Z,94816.00
2023-03-21T14:38:06.160Z,94816.00
2023-03-21T14:42:06.426Z,94810.00
2023-03-21T14:46:06.474Z,94810.00
2023-03-21T14:50:06.666Z,94807.00
2023-03-21T14:54:06.724Z,94807.00
2023-03-21T14:58:07.018Z,94805.00
2023-03-21T15:02:07.102Z,94803.00
2023-03-21T15:06:07.282Z,94797.00
2023-03-21T15:10:07.646Z,94791.00
2023-03-21T15:14:08.142Z,94787.00
2023-03-21T15:18:08.003Z,94787.00
2023-03-21T15:22:08.113Z,94783.00
2023-03-21T15:26:08.349Z,94785.00
2023-03-21T15:30:08.662Z,94783.00
2023-03-21T15:34:08.508Z,94783.00
2023-03-21T15:38:08.457Z,94785.00
2023-03-21T15:42:08.464Z,94779.00
2023-03-21T15:46:08.476Z,94775.00
2023-03-21T15:50:08.413Z,94767.00
2023-03-21T15:54:08.837Z,94771.00
2023-03-21T15:58:08.305Z,94771.00
2023-03-21T16:02:08.415Z,94769.00
2023-03-21T16:06:10.766Z,94771.00
2023-03-21T16:10:08.182Z,94777.00
2023-03-21T16:14:08.196Z,94781.00
2023-03-21T16:18:10.859Z,94783.00
2023-03-21T16:22:08.065Z,94785.00
2023-03-21T16:26:08.025Z,94781.00
2023-03-21T16:30:09.387Z,94783.00
2023-03-21T16:34:07.970Z,94785.00
2023-03-21T16:38:08.144Z,94787.00
2023-03-21T16:42:08.299Z,94791.00
2023-03-21T16:46:08.501Z,94793.00
2023-03-21T16:50:08.573Z,94797.00
2023-03-21T16:54:08.583Z,94801.00
2023-03-21T16:58:08.621Z,94803.00
2023-03-21T17:02:08.654Z,94801.00
2023-03-21T17:06:08.609Z,94801.00
2023-03-21T17:10:08.589Z,94803.00
2023-03-21T17:14:08.531Z,94807.00
2023-03-21T17:18:08.574Z,94807.00
2023-03-21T17:22:08.545Z,94809.00
2023-03-21T17:26:08.566Z,94816.00
2023-03-21T17:30:08.578Z,94820.00
2023-03-21T17:34:08.596Z,94820.00
2023-03-21T17:38:08.608Z,94818.00
2023-03-21T17:42:08.628Z,94818.00
2023-03-21T17:46:08.660Z,94818.00
2023-03-21T17:50:08.726Z,94824.00
2023-03-21T17:54:08.753Z,94822.00
2023-03-21T17:58:09.300Z,94822.00
2023-03-21T18:02:08.954Z,94824.00
2023-03-21T18:06:08.887Z,94832.00
2023-03-21T18:10:09.027Z,94838.00
2023-03-21T18:14:16.349Z,94842.00
2023-03-21T18:18:10.038Z,94842.00
2023-03-21T18:22:09.082Z,94846.00
2023-03-21T18:26:09.320Z,94850.00
2023-03-21T18:30:46.928Z,94856.00
2023-03-21T18:34:09.894Z,94859.00
2023-03-21T18:38:08.833Z,94861.00
2023-03-21T18:42:16.788Z,94869.00
2023-03-21T18:46:09.777Z,94875.00
2023-03-21T18:50:16.253Z,94881.00
2023-03-21T18:54:09.684Z,94879.00
2023-03-21T18:58:08.687Z,94883.00
2023-03-21T19:02:08.700Z,94887.00
2023-03-21T19:06:08.743Z,94883.00
2023-03-21T19:10:18.686Z,94889.00
2023-03-21T19:14:09.896Z,94897.00
2023-03-21T19:18:37.693Z,94899.00
2023-03-21T19:22:09.809Z,94903.00
2023-03-21T19:26:08.772Z,94901.00
2023-03-21T19:30:14.924Z,94901.00
2023-03-21T19:34:09.803Z,94903.00
2023-03-21T19:38:08.791Z,94910.00
2023-03-21T19:42:16.979Z,94912.00
2023-03-21T19:46:09.927Z,94910.00
2023-03-21T19:50:47.358Z,94903.00
2023-03-21T19:54:09.797Z,94910.00
2023-03-21T19:58:08.792Z,94910.00
2023-03-21T20:02:33.650Z,94914.00
2023-03-21T20:06:09.922Z,94912.00
2023-03-21T20:10:08.874Z,94914.00
2023-03-21T20:14:09.085Z,94920.00
2023-03-21T20:18:09.037Z,94922.00
2023-03-21T20:22:20.154Z,94926.00
2023-03-21T20:26:09.931Z,94926.00
2023-03-21T20:30:10.240Z,94928.00
2023-03-21T20:34:09.357Z,94924.00
2023-03-21T20:38:09.134Z,94926.00
2023-03-21T20:42:09.343Z,94928.00
2023-03-21T20:46:09.376Z,94934.00
2023-03-21T20:50:10.177Z,94932.00
2023-03-21T20:54:09.414Z,94934.00
2023-03-21T20:58:30.029Z,94934.00
2023-03-21T21:02:10.327Z,94936.00
2023-03-21T21:06:09.307Z,94940.00
2023-03-21T21:10:09.267Z,94944.00
2023-03-21T21:14:09.217Z,94946.00
2023-03-21T21:18:09.172Z,94949.00
2023-03-21T21:22:09.150Z,94953.00
2023-03-21T21:26:09.097Z,94953.00
2023-03-21T21:30:09.085Z,94953.00
2023-03-21T21:34:09.085Z,94957.00
2023-03-21T21:38:09.209Z,94959.00
2023-03-21T21:42:09.099Z,94961.00
2023-03-21T21:46:09.117Z,94961.00
2023-03-21T21:50:09.140Z,94959.00
2023-03-21T21:54:09.151Z,94957.00
2023-03-21T21:58:09.165Z,94953.00
2023-03-21T22:02:09.208Z,94955.00
2023-03-21T22:06:09.291Z,94961.00
2023-03-21T22:10:09.332Z,94961.00
2023-03-21T22:14:09.436Z,94967.00
2023-03-21T22:18:09.499Z,94967.00
2023-03-21T22:22:09.511Z,94969.00
2023-03-21T22:26:09.625Z,94967.00
2023-03-21T22:30:09.634Z,94961.00
2023-03-21T22:34:09.733Z,94959.00
2023-03-21T22:38:09.844Z,94959.00
2023-03-21T22:42:09.969Z,94961.00
2023-03-21T22:46:10.154Z,94961.00
2023-03-21T22:50:10.162Z,94965.00
2023-03-21T22:54:10.253Z,94963.00
2023-03-21T22:58:10.414Z,94963.00
2023-03-21T23:02:10.515Z,94965.00
2023-03-21T23:06:10.718Z,94963.00
2023-03-21T23:10:10.786Z,94959.00
2023-03-21T23:14:10.939Z,94959.00
2023-03-21T23:18:11.059Z,94959.00
2023-03-21T23:22:11.173Z,94959.00
2023-03-21T23:26:11.321Z,94957.00
2023-03-21T23:30:11.498Z,94957.00
2023-03-21T23:34:11.635Z,94953.00
2023-03-21T23:38:11.795Z,94953.00
2023-03-21T23:42:12.016Z,94955.00
2023-03-21T23:46:12.104Z,94953.00
2023-03-21T23:50:12.885Z,94957.00
2023-03-21T23:54:12.363Z,94957.00
2023-03-21T23:58:12.446Z,94957.00
